Terminal Aerodrome Forecast
Issued by NWS Pocatello, ID

Home | Current Version | Previous Version | Text Only | Print | Product List | Glossary On
Versions: 1 2 3 4 5 6 7 8 9 10 11 12 13 14 15 16 17
849
FTUS45 KPIH 221120
TAFBYI
TAF
KBYI 221120Z 2212/2312 20015KT P6SM VCSH SCT020 BKN090
     FM221400 21010KT 2SM -SN SCT010 BKN020 OVC035
     FM221900 25014G24KT P6SM VCSH SCT015 OVC040
     FM230100 23009KT P6SM SCT040 BKN100
     FM230600 23007KT P6SM SCT025 SCT040=

USA.gov is the U.S. government's official web portal to all federal, state and local government web resources and services.